Time;durP1;ratioP1;P1;durP2;ratioP2;P2;SDS_P1;SDS_P2;PMS_P1;PMS_P2;Temp;Humidity;BMP_temperature;BMP_pressure;BME280_temperature;BME280_humidity;BME280_pressure;Samples;Min_cycle;Max_cycle;Signal;HPM_P1;HPM_P2
2021/04/18 00:00:20;;;;;;;5.13;2.25;;;;;;;7.41;64.20;100975.91;4993839;28;20112;-69
2021/04/18 00:02:46;;;;;;;4.88;2.85;;;;;;;7.48;60.92;100973.59;5012081;28;20056;-69
2021/04/18 00:05:12;;;;;;;5.80;2.50;;;;;;;7.47;61.60;100971.09;5012431;28;20033;-69
2021/04/18 00:07:38;;;;;;;4.88;2.42;;;;;;;7.53;60.69;100971.47;5012699;28;20522;-69
2021/04/18 00:10:05;;;;;;;4.35;2.20;;;;;;;7.51;60.62;100967.25;4994659;28;20121;-68
2021/04/18 00:12:30;;;;;;;3.72;1.85;;;;;;;7.50;60.56;100969.06;4993571;28;20045;-72
2021/04/18 00:14:57;;;;;;;2.30;1.38;;;;;;;7.52;60.86;100966.31;4994255;28;20042;-69
2021/04/18 00:17:22;;;;;;;3.53;2.10;;;;;;;7.44;61.65;100969.56;4994365;28;20108;-69
2021/04/18 00:19:52;;;;;;;2.08;1.50;;;;;;;7.43;61.19;100966.06;4994214;28;20125;-68
2021/04/18 00:22:17;;;;;;;5.00;2.47;;;;;;;7.43;62.09;100971.31;5000576;28;20057;-68
2021/04/18 00:24:43;;;;;;;2.53;1.60;;;;;;;7.42;61.33;100967.03;5016488;28;20157;-69
2021/04/18 00:27:09;;;;;;;3.00;1.75;;;;;;;7.39;61.77;100959.41;5011998;28;20060;-68
2021/04/18 00:29:35;;;;;;;3.03;1.70;;;;;;;7.44;60.74;100959.03;5011924;28;20034;-69
2021/04/18 00:32:02;;;;;;;2.50;1.50;;;;;;;7.44;61.00;100957.22;5011073;28;20491;-71
2021/04/18 00:34:27;;;;;;;2.30;1.60;;;;;;;7.45;62.96;100955.44;4995317;28;20038;-68
2021/04/18 00:36:54;;;;;;;4.63;2.20;;;;;;;7.37;63.39;100958.66;4993555;28;20073;-69
2021/04/18 00:39:19;;;;;;;3.72;2.65;;;;;;;7.25;64.32;100954.38;4994382;28;20041;-68
2021/04/18 00:41:45;;;;;;;2.97;1.88;;;;;;;7.26;62.94;100949.94;5011115;28;20406;-68
2021/04/18 00:44:11;;;;;;;3.47;2.03;;;;;;;7.31;62.00;100947.78;4993031;28;20040;-69
2021/04/18 00:46:38;;;;;;;3.45;2.10;;;;;;;7.27;62.72;100952.47;4993033;28;20049;-68
2021/04/18 00:49:05;;;;;;;2.90;1.88;;;;;;;7.24;63.04;100942.16;5014201;28;20046;-68
2021/04/18 00:51:30;;;;;;;6.45;2.67;;;;;;;7.16;63.70;100944.56;4998360;28;20034;-68
2021/04/18 00:53:56;;;;;;;2.90;1.90;;;;;;;7.21;63.55;100948.50;5001603;28;20045;-69
2021/04/18 00:56:22;;;;;;;5.75;2.67;;;;;;;7.10;65.54;100950.28;4992781;28;20040;-69
2021/04/18 00:58:49;;;;;;;5.10;2.40;;;;;;;7.16;64.24;100947.19;5011613;28;20045;-68
2021/04/18 01:01:14;;;;;;;3.85;1.75;;;;;;;7.23;62.33;100943.13;4977452;28;20042;-69
2021/04/18 01:03:40;;;;;;;2.58;1.63;;;;;;;7.23;63.83;100932.59;5010735;28;20112;-68
2021/04/18 01:06:06;;;;;;;3.75;1.80;;;;;;;7.25;63.09;100943.84;5010753;28;20069;-70
2021/04/18 01:08:31;;;;;;;4.43;1.75;;;;;;;7.30;61.93;100932.97;4993733;28;20041;-69
2021/04/18 01:10:56;;;;;;;3.50;2.05;;;;;;;7.30;62.22;100930.34;5010846;28;20030;-68
2021/04/18 01:13:22;;;;;;;4.43;1.90;;;;;;;7.30;62.31;100932.97;4993733;28;20038;-69
2021/04/18 01:15:47;;;;;;;4.13;2.45;;;;;;;7.32;62.04;100926.63;5011982;28;20095;-69
2021/04/18 01:18:12;;;;;;;4.35;2.70;;;;;;;7.24;64.09;100921.13;4994702;28;20034;-69
2021/04/18 01:20:38;;;;;;;4.10;2.55;;;;;;;7.27;62.56;100926.16;5012872;28;20038;-69
2021/04/18 01:23:03;;;;;;;4.80;2.70;;;;;;;7.27;62.21;100927.94;5024329;28;20100;-68
2021/04/18 01:25:29;;;;;;;5.20;3.25;;;;;;;7.24;62.84;100921.13;5011992;28;20034;-69
2021/04/18 01:27:55;;;;;;;3.83;2.58;;;;;;;7.18;63.44;100924.25;5012078;28;20034;-69
2021/04/18 01:30:24;;;;;;;4.28;2.58;;;;;;;7.18;63.92;100921.63;4993552;28;20045;-69
2021/04/18 01:32:52;;;;;;;3.83;1.98;;;;;;;7.17;62.85;100920.75;5017596;28;20120;-68
2021/04/18 01:35:18;;;;;;;4.18;2.15;;;;;;;7.15;63.65;100927.97;5009817;28;20069;-69
2021/04/18 01:37:44;;;;;;;3.15;1.75;;;;;;;7.10;64.68;100924.00;5010044;28;20022;-69
2021/04/18 01:40:13;;;;;;;3.67;1.88;;;;;;;7.12;63.39;100922.09;4992273;28;20470;-69
2021/04/18 01:42:39;;;;;;;3.05;1.70;;;;;;;7.09;64.79;100922.34;5009802;28;20033;-69
2021/04/18 01:45:05;;;;;;;4.53;2.38;;;;;;;7.07;64.61;100922.44;4992536;28;20046;-68
2021/04/18 01:47:31;;;;;;;4.50;2.40;;;;;;;7.05;63.50;100923.53;5015512;28;20069;-69
2021/04/18 01:49:56;;;;;;;3.25;1.98;;;;;;;7.00;65.48;100918.63;5010417;28;20122;-69
2021/04/18 01:52:22;;;;;;;5.85;2.88;;;;;;;7.06;64.38;100926.03;5018930;28;20250;-69
2021/04/18 01:54:47;;;;;;;3.47;2.10;;;;;;;7.00;63.64;100919.44;5013633;28;20038;-69
2021/04/18 01:57:13;;;;;;;2.88;1.80;;;;;;;7.04;63.72;100924.50;5010026;28;20030;-69
2021/04/18 01:59:38;;;;;;;2.85;1.60;;;;;;;7.01;65.07;100918.50;4992363;28;20057;-70
2021/04/18 02:02:09;;;;;;;5.57;2.50;;;;;;;6.91;64.80;100917.56;5008427;28;20087;-69
2021/04/18 02:04:35;;;;;;;2.65;1.90;;;;;;;6.87;65.56;100923.16;4997612;28;20117;-68
2021/04/18 02:07:02;;;;;;;4.22;2.50;;;;;;;6.81;67.26;100924.44;5007567;28;20442;-69
2021/04/18 02:09:31;;;;;;;5.13;2.83;;;;;;;6.78;65.92;100929.94;4989344;28;20121;-69
2021/04/18 02:12:01;;;;;;;3.30;1.95;;;;;;;6.78;65.48;100925.53;5004628;28;20026;-68
2021/04/18 02:14:27;;;;;;;4.25;1.83;;;;;;;6.74;66.92;100925.88;5009766;28;20069;-68
2021/04/18 02:16:53;;;;;;;4.22;3.10;;;;;;;6.65;68.08;100929.19;5011679;28;20310;-68
2021/04/18 02:19:19;;;;;;;3.95;2.47;;;;;;;6.61;67.59;100920.72;5008876;28;20038;-68
2021/04/18 02:21:44;;;;;;;4.53;2.10;;;;;;;6.62;66.70;100924.19;5009906;28;20080;-70
2021/04/18 02:24:10;;;;;;;2.35;1.67;;;;;;;6.66;65.99;100920.38;4999757;28;20058;-68
2021/04/18 02:26:35;;;;;;;2.25;1.50;;;;;;;6.69;65.07;100926.22;5009951;28;20030;-69
2021/04/18 02:29:01;;;;;;;2.25;1.30;;;;;;;6.69;66.64;100920.97;5010035;28;20129;-68
2021/04/18 02:31:26;;;;;;;4.47;2.38;;;;;;;6.64;67.89;100925.75;5008615;28;20034;-69
2021/04/18 02:33:51;;;;;;;4.95;2.40;;;;;;;6.63;66.29;100928.50;5016312;28;20099;-68
2021/04/18 02:36:17;;;;;;;2.65;1.65;;;;;;;6.66;65.36;100923.84;4991427;28;20403;-69
2021/04/18 02:38:42;;;;;;;2.65;1.40;;;;;;;6.72;65.59;100919.91;5009864;28;20045;-69
2021/04/18 02:41:08;;;;;;;2.90;1.67;;;;;;;6.77;65.73;100934.38;5010121;28;20038;-69
2021/04/18 02:43:33;;;;;;;2.42;1.50;;;;;;;6.77;65.09;100926.50;5010251;28;20038;-68
2021/04/18 02:45:58;;;;;;;2.35;1.42;;;;;;;6.80;65.44;100920.16;4992479;28;20281;-69
2021/04/18 02:48:24;;;;;;;5.28;2.97;;;;;;;6.86;64.39;100924.09;5010011;28;20052;-68
2021/04/18 02:50:49;;;;;;;4.13;2.10;;;;;;;6.81;65.48;100930.53;5010407;28;20113;-69
2021/04/18 02:53:14;;;;;;;3.35;2.13;;;;;;;6.83;64.96;100927.81;5016934;28;20061;-69
2021/04/18 02:55:40;;;;;;;3.47;1.80;;;;;;;6.79;66.44;100921.09;5030668;28;20030;-69
2021/04/18 02:58:06;;;;;;;3.13;1.40;;;;;;;6.78;65.54;100922.06;5014303;28;20042;-70
2021/04/18 03:00:32;;;;;;;3.28;1.85;;;;;;;6.78;65.33;100922.91;5010553;28;20029;-68
2021/04/18 03:02:57;;;;;;;2.53;1.70;;;;;;;6.75;65.67;100922.31;5010185;28;20382;-69
2021/04/18 03:05:22;;;;;;;2.50;1.65;;;;;;;6.71;66.33;100924.31;5009844;28;20046;-69
2021/04/18 03:07:48;;;;;;;3.72;2.38;;;;;;;6.65;67.48;100918.69;5009407;28;20054;-69
2021/04/18 03:10:14;;;;;;;5.63;2.50;;;;;;;6.59;67.65;100925.25;5008642;28;20061;-69
2021/04/18 03:12:39;;;;;;;4.55;2.53;;;;;;;6.59;66.58;100927.88;5009535;28;20080;-68
2021/04/18 03:15:06;;;;;;;5.10;2.58;;;;;;;6.56;67.00;100925.50;5010310;28;20026;-69
2021/04/18 03:17:31;;;;;;;4.50;2.50;;;;;;;6.54;69.06;100927.41;5029297;28;20034;-69
2021/04/18 03:19:56;;;;;;;3.88;2.60;;;;;;;6.47;69.66;100919.13;4995741;28;20186;-67
2021/04/18 03:22:22;;;;;;;3.30;2.50;;;;;;;6.47;69.06;100918.31;5020952;28;20116;-68
2021/04/18 03:24:47;;;;;;;3.40;2.10;;;;;;;6.48;67.48;100915.53;5006800;28;20442;-67
2021/04/18 03:27:13;;;;;;;3.17;2.10;;;;;;;6.52;66.84;100917.00;5014187;28;20037;-67
2021/04/18 03:29:38;;;;;;;3.80;2.60;;;;;;;6.56;66.59;100915.81;5013795;28;20030;-67
2021/04/18 03:32:04;;;;;;;2.95;2.03;;;;;;;6.62;66.55;100921.56;4995074;28;20072;-67
2021/04/18 03:34:29;;;;;;;2.90;2.05;;;;;;;6.62;66.84;100918.94;5015553;28;20506;-67
2021/04/18 03:36:54;;;;;;;4.43;2.30;;;;;;;6.62;66.55;100919.75;4996168;28;20041;-67
2021/04/18 03:39:19;;;;;;;4.30;2.00;;;;;;;6.62;66.91;100917.13;4995988;28;20026;-67
2021/04/18 03:41:45;;;;;;;5.32;2.70;;;;;;;6.60;67.10;100911.16;4995070;28;20441;-67
2021/04/18 03:44:11;;;;;;;3.33;2.03;;;;;;;6.53;68.11;100908.19;4995147;28;20065;-69
2021/04/18 03:46:36;;;;;;;4.43;2.35;;;;;;;6.43;68.55;100911.59;5013741;28;20038;-67
2021/04/18 03:49:02;;;;;;;4.47;2.40;;;;;;;6.34;67.70;100902.63;5013350;28;20042;-67
2021/04/18 03:51:28;;;;;;;3.42;2.25;;;;;;;6.26;67.60;100903.19;4994691;28;20030;-67
2021/04/18 03:53:53;;;;;;;3.22;2.30;;;;;;;6.18;69.14;100896.84;5022404;28;20405;-67
2021/04/18 03:56:18;;;;;;;4.32;3.03;;;;;;;6.07;69.21;100898.47;5012606;28;20034;-68
2021/04/18 03:58:44;;;;;;;3.95;2.60;;;;;;;6.01;68.62;100896.31;4998925;28;20112;-67
2021/04/18 04:01:09;;;;;;;3.80;2.40;;;;;;;6.00;68.29;100892.00;5013217;28;20491;-67
2021/04/18 04:03:36;;;;;;;2.88;2.20;;;;;;;6.00;67.91;100891.16;4995813;28;20180;-67
2021/04/18 04:06:01;;;;;;;6.10;3.45;;;;;;;6.07;67.33;100882.72;4995770;28;20026;-67
2021/04/18 04:08:27;;;;;;;4.25;2.08;;;;;;;6.09;67.99;100882.63;5012397;28;20091;-67
2021/04/18 04:10:52;;;;;;;3.97;3.03;;;;;;;6.04;70.21;100895.25;5013611;28;20040;-67
2021/04/18 04:13:18;;;;;;;5.90;3.20;;;;;;;5.99;70.54;100887.72;5013264;28;20033;-67
2021/04/18 04:15:43;;;;;;;4.50;3.13;;;;;;;5.88;71.93;100891.09;5019121;28;20061;-67
2021/04/18 04:18:08;;;;;;;5.55;3.25;;;;;;;5.82;71.43;100894.19;5016409;28;20041;-67
2021/04/18 04:20:34;;;;;;;3.53;2.50;;;;;;;5.88;72.10;100890.25;4994790;28;20034;-67
2021/04/18 04:22:59;;;;;;;2.55;1.70;;;;;;;5.96;69.47;100895.81;5003827;28;20388;-68
2021/04/18 04:25:24;;;;;;;4.22;2.53;;;;;;;6.00;70.69;100892.00;5032504;28;20175;-67
2021/04/18 04:27:50;;;;;;;5.18;3.50;;;;;;;6.12;69.83;100896.34;4994722;28;20354;-67
2021/04/18 04:30:15;;;;;;;5.68;2.85;;;;;;;6.20;68.50;100897.56;5011464;28;20084;-67
2021/04/18 04:32:41;;;;;;;3.25;2.30;;;;;;;6.24;70.19;100897.22;5017404;28;20037;-67
2021/04/18 04:35:07;;;;;;;4.10;2.60;;;;;;;6.23;70.20;100906.06;5021749;28;20054;-67
2021/04/18 04:37:32;;;;;;;5.07;2.88;;;;;;;6.28;69.96;100905.72;5012582;28;20042;-67
2021/04/18 04:39:57;;;;;;;5.32;3.22;;;;;;;6.28;68.66;100906.53;5012307;28;20034;-67
2021/04/18 04:42:23;;;;;;;4.03;2.50;;;;;;;6.31;68.82;100905.47;5011906;28;20053;-68
2021/04/18 04:44:48;;;;;;;8.52;4.20;;;;;;;6.46;67.75;100912.22;4994839;28;20437;-67
2021/04/18 04:47:13;;;;;;;7.10;3.67;;;;;;;6.47;67.41;100910.44;5012474;28;20042;-67
2021/04/18 04:49:39;;;;;;;7.65;3.72;;;;;;;6.48;67.69;100912.91;5006117;28;20041;-67
2021/04/18 04:52:06;;;;;;;6.75;3.85;;;;;;;6.38;68.23;100910.16;5016025;28;20112;-68
2021/04/18 04:54:31;;;;;;;7.95;3.95;;;;;;;6.29;68.58;100903.00;5018923;28;20495;-67
2021/04/18 04:56:57;;;;;;;6.55;3.50;;;;;;;6.32;68.20;100908.00;4994724;28;20040;-67
2021/04/18 04:59:22;;;;;;;6.40;3.42;;;;;;;6.38;68.03;100909.31;5016328;28;20041;-68
2021/04/18 05:01:47;;;;;;;7.80;3.92;;;;;;;6.43;67.33;100909.81;4999424;28;20093;-67
2021/04/18 05:04:13;;;;;;;5.10;2.92;;;;;;;6.39;68.07;100905.75;5017434;28;20355;-67
2021/04/18 05:06:38;;;;;;;4.60;2.70;;;;;;;6.43;67.95;100906.34;5016374;28;20137;-68
2021/04/18 05:09:04;;;;;;;3.63;1.80;;;;;;;6.43;68.14;100907.19;5015724;28;20379;-67
2021/04/18 05:11:29;;;;;;;2.65;1.80;;;;;;;6.51;68.04;100902.19;4994508;28;20092;-67
2021/04/18 05:13:55;;;;;;;4.45;2.58;;;;;;;6.54;67.59;100912.47;4994933;28;20034;-67
2021/04/18 05:16:20;;;;;;;3.92;2.45;;;;;;;6.59;67.04;100910.31;5004628;28;20050;-67
2021/04/18 05:18:45;;;;;;;3.35;2.10;;;;;;;6.66;67.21;100909.88;5011810;28;20058;-67
2021/04/18 05:21:12;;;;;;;3.65;2.03;;;;;;;6.71;67.13;100915.59;5013976;28;20557;-67
2021/04/18 05:23:37;;;;;;;4.75;2.60;;;;;;;6.76;67.04;100913.47;5020805;28;20398;-67
2021/04/18 05:26:03;;;;;;;3.97;2.40;;;;;;;6.82;66.84;100915.63;4993896;28;20030;-67
2021/04/18 05:28:28;;;;;;;4.88;3.33;;;;;;;6.93;66.52;100917.41;5010917;28;20042;-67
2021/04/18 05:30:55;;;;;;;6.63;3.88;;;;;;;7.00;66.45;100908.94;5011822;28;20034;-67
2021/04/18 05:33:20;;;;;;;6.57;3.50;;;;;;;7.01;66.35;100909.78;5022058;28;20513;-67
2021/04/18 05:35:46;;;;;;;4.55;3.03;;;;;;;7.07;66.79;100909.28;5031924;28;20040;-67
2021/04/18 05:38:11;;;;;;;6.07;3.50;;;;;;;7.22;65.83;100912.50;5012741;28;20030;-68
2021/04/18 05:40:36;;;;;;;4.97;3.20;;;;;;;7.20;65.85;100909.19;5010816;28;20113;-67
2021/04/18 05:43:02;;;;;;;5.90;3.60;;;;;;;7.28;65.58;100916.47;5010783;28;20045;-67
2021/04/18 05:45:27;;;;;;;6.25;3.60;;;;;;;7.21;65.73;100916.94;5010907;28;20042;-67
2021/04/18 05:47:52;;;;;;;3.90;2.20;;;;;;;7.21;65.77;100921.38;5011294;28;20069;-67
2021/04/18 05:50:18;;;;;;;3.40;2.05;;;;;;;7.30;65.77;100918.03;5010799;28;20100;-67
2021/04/18 05:52:44;;;;;;;6.18;3.20;;;;;;;7.38;65.23;100926.13;5012291;28;20034;-67
2021/04/18 05:55:10;;;;;;;5.63;3.60;;;;;;;7.46;64.81;100920.28;5026082;28;20045;-68
2021/04/18 05:57:35;;;;;;;7.80;3.80;;;;;;;7.45;64.81;100929.13;5010633;28;20026;-67
2021/04/18 06:00:02;;;;;;;5.65;2.90;;;;;;;7.48;64.69;100935.94;4993502;28;20072;-67
2021/04/18 06:02:27;;;;;;;4.38;2.70;;;;;;;7.54;64.76;100933.66;5010359;28;20084;-67
2021/04/18 06:04:52;;;;;;;4.78;3.03;;;;;;;7.55;64.80;100937.13;5010917;28;20046;-67
2021/04/18 06:07:18;;;;;;;5.07;3.05;;;;;;;7.62;64.77;100944.41;4992963;28;20372;-67
2021/04/18 06:09:43;;;;;;;3.20;1.98;;;;;;;7.68;64.67;100939.63;4993742;28;20049;-67
2021/04/18 06:12:09;;;;;;;5.88;3.38;;;;;;;7.72;63.99;100941.03;5009354;28;20054;-68
2021/04/18 06:14:34;;;;;;;6.38;3.95;;;;;;;7.75;63.84;100941.63;5010451;28;20072;-68
2021/04/18 06:17:00;;;;;;;4.60;3.15;;;;;;;7.73;64.02;100943.56;5014574;28;20096;-67
2021/04/18 06:19:25;;;;;;;5.03;3.70;;;;;;;7.80;63.64;100936.84;5010977;28;20085;-67
2021/04/18 06:21:50;;;;;;;7.22;4.35;;;;;;;7.85;63.54;100937.28;4993197;28;20044;-67
2021/04/18 06:24:16;;;;;;;4.45;3.10;;;;;;;7.80;63.93;100939.47;5027729;28;20132;-68
2021/04/18 06:26:41;;;;;;;5.78;3.85;;;;;;;7.68;64.73;100935.19;5016370;28;20043;-68
2021/04/18 06:29:06;;;;;;;5.60;3.33;;;;;;;7.71;64.54;100931.47;5010228;28;20122;-68
2021/04/18 06:31:32;;;;;;;5.65;2.67;;;;;;;7.75;66.17;100932.91;4992916;28;20030;-67
2021/04/18 06:33:57;;;;;;;5.80;3.33;;;;;;;7.90;64.76;100936.09;5017902;28;20057;-67
2021/04/18 06:36:22;;;;;;;6.53;3.83;;;;;;;8.09;64.92;100931.00;5003579;28;20383;-67
2021/04/18 06:38:48;;;;;;;7.00;3.67;;;;;;;8.37;64.37;100932.19;4993142;28;20076;-67
2021/04/18 06:41:21;;;;;;;6.95;4.70;;;;;;;9.05;62.80;100927.34;4993008;28;20078;-67
2021/04/18 06:43:48;;;;;;;7.05;4.63;;;;;;;9.52;61.06;100925.00;5010498;28;20116;-67
2021/04/18 06:46:19;;;;;;;7.43;3.88;;;;;;;10.52;59.83;100931.91;4991675;28;20045;-68
2021/04/18 06:48:48;;;;;;;7.03;3.60;;;;;;;11.62;58.41;100935.69;5007354;28;20053;-68
2021/04/18 06:51:18;;;;;;;8.68;4.32;;;;;;;12.47;53.33;100934.38;5014062;28;20030;-67
2021/04/18 06:53:45;;;;;;;6.25;4.03;;;;;;;12.66;53.15;100941.31;5018037;28;20030;-68
2021/04/18 06:56:11;;;;;;;5.68;2.97;;;;;;;12.23;53.20;100939.50;5014101;28;20097;-68
2021/04/18 06:58:36;;;;;;;7.97;5.03;;;;;;;12.19;51.92;100940.78;5024293;28;20089;-68
2021/04/18 07:01:02;;;;;;;6.18;3.90;;;;;;;11.72;52.72;100946.22;5027974;28;20026;-68
2021/04/18 07:03:27;;;;;;;6.43;4.20;;;;;;;11.01;54.41;100942.38;5018921;28;20045;-68
2021/04/18 07:05:59;;;;;;;4.88;3.28;;;;;;;10.89;55.72;100946.16;5013886;28;20038;-68
2021/04/18 07:08:30;;;;;;;8.45;5.15;;;;;;;10.90;54.64;100947.84;5013889;28;20108;-68
2021/04/18 07:11:11;;;;;;;6.90;4.47;;;;;;;10.35;55.05;100932.63;4995011;28;20029;-68
2021/04/18 07:13:37;;;;;;;7.17;4.30;;;;;;;10.10;55.99;100944.56;5014698;28;20498;-67
2021/04/18 07:16:03;;;;;;;4.63;3.10;;;;;;;10.02;55.15;100942.63;5002135;28;20041;-68
2021/04/18 07:18:41;;;;;;;7.40;4.80;;;;;;;9.94;56.07;100934.56;5008481;28;20030;-68
2021/04/18 07:21:07;;;;;;;7.22;3.40;;;;;;;9.89;56.29;100937.59;5013021;28;20434;-68
2021/04/18 07:23:34;;;;;;;6.50;4.47;;;;;;;10.09;55.74;100942.91;5010266;28;20073;-68
2021/04/18 07:26:19;;;;;;;7.78;5.22;;;;;;;10.29;55.48;100947.22;4996207;28;20093;-67
2021/04/18 07:28:45;;;;;;;6.95;4.50;;;;;;;10.18;55.70;100934.97;5013441;28;20798;-68
2021/04/18 07:31:11;;;;;;;8.85;5.45;;;;;;;10.25;55.64;100937.91;5013859;28;20055;-67
2021/04/18 07:33:59;;;;;;;7.13;4.55;;;;;;;10.17;55.08;100935.09;5012597;28;20553;-67
2021/04/18 07:36:25;;;;;;;8.82;4.55;;;;;;;9.94;56.53;100935.38;5013213;28;20470;-67
2021/04/18 07:38:51;;;;;;;7.22;4.50;;;;;;;9.74;59.33;100931.03;4996699;28;20042;-68
2021/04/18 07:41:18;;;;;;;7.75;4.80;;;;;;;9.99;56.29;100933.16;5013787;28;20034;-67
2021/04/18 07:43:45;;;;;;;6.18;4.28;;;;;;;9.77;58.27;100917.53;4994103;28;20759;-67
2021/04/18 07:46:11;;;;;;;7.85;4.68;;;;;;;9.89;56.88;100926.19;4994671;28;20041;-68
2021/04/18 07:48:37;;;;;;;6.25;3.85;;;;;;;9.92;56.77;100926.75;5013954;28;20046;-68
2021/04/18 07:51:03;;;;;;;8.57;5.10;;;;;;;9.79;57.51;100928.81;5011013;28;20509;-66
2021/04/18 07:53:28;;;;;;;7.10;4.47;;;;;;;9.59;58.97;100925.31;5012703;28;20117;-68
2021/04/18 07:55:54;;;;;;;5.43;3.63;;;;;;;9.81;57.38;100929.50;5012778;28;20041;-66
2021/04/18 07:58:20;;;;;;;7.65;4.90;;;;;;;9.73;56.94;100914.34;5011930;28;20034;-66
2021/04/18 08:00:45;;;;;;;6.82;4.30;;;;;;;9.80;57.32;100925.22;5012828;28;20034;-66
2021/04/18 08:03:14;;;;;;;7.75;4.75;;;;;;;9.83;57.13;100922.28;5011718;28;20030;-68
2021/04/18 08:05:40;;;;;;;6.97;4.28;;;;;;;9.79;58.04;100918.25;5012711;28;20121;-66
2021/04/18 08:08:06;;;;;;;8.85;4.07;;;;;;;9.88;58.94;100920.06;5011801;28;20060;-68
2021/04/18 08:10:38;;;;;;;6.93;4.60;;;;;;;9.78;56.88;100919.22;5012537;28;20467;-66
2021/04/18 08:13:05;;;;;;;;;;;;;;;9.74;57.31;100917.81;5012366;28;20026;-66
2021/04/18 08:15:31;;;;;;;5.68;3.85;;;;;;;9.74;57.73;100920.47;5012197;28;20146;-68
2021/04/18 08:18:07;;;;;;;6.85;4.15;;;;;;;9.72;57.49;100920.59;4994792;28;20058;-66
2021/04/18 08:20:55;;;;;;;10.27;4.82;;;;;;;9.68;57.00;100924.50;5011849;28;20038;-68
2021/04/18 08:23:21;;;;;;;7.38;4.57;;;;;;;9.81;57.16;100926.03;5012438;28;20494;-66
2021/04/18 08:26:10;;;;;;;8.45;4.97;;;;;;;9.88;57.14;100927.16;5012187;28;20033;-66
2021/04/18 08:28:51;;;;;;;7.05;4.80;;;;;;;9.88;56.13;100919.25;5012350;28;20453;-67
2021/04/18 08:31:17;;;;;;;6.95;4.45;;;;;;;9.96;58.77;100916.72;4994119;28;20091;-67
2021/04/18 08:33:44;;;;;;;5.50;3.97;;;;;;;10.28;56.76;100920.94;5025868;28;20033;-66
2021/04/18 08:36:18;;;;;;;6.18;4.10;;;;;;;10.50;57.31;100925.09;5014141;28;20120;-66
2021/04/18 08:38:46;;;;;;;7.30;4.30;;;;;;;10.62;55.44;100923.97;5012838;28;20030;-66
2021/04/18 08:41:15;;;;;;;6.82;4.30;;;;;;;10.81;53.94;100923.09;4988205;28;20033;-68
2021/04/18 08:43:45;;;;;;;6.70;4.22;;;;;;;10.87;55.28;100929.59;4997264;28;20075;-66
2021/04/18 08:46:10;;;;;;;8.75;5.32;;;;;;;11.08;52.53;100919.63;4995798;28;20490;-69
2021/04/18 08:48:36;;;;;;;7.53;4.88;;;;;;;10.83;54.33;100929.06;5012753;28;20041;-66
2021/04/18 08:51:07;;;;;;;8.23;5.15;;;;;;;10.66;55.68;100925.34;5011866;28;20026;-66
2021/04/18 08:53:53;;;;;;;6.40;4.27;;;;;;;10.86;54.23;100926.13;5011711;28;20513;-66
2021/04/18 08:56:18;;;;;;;7.38;4.47;;;;;;;10.79;52.71;100925.88;5011207;28;20493;-66
2021/04/18 08:58:43;;;;;;;6.95;4.38;;;;;;;10.75;53.74;100932.44;5011546;28;20069;-68
2021/04/18 09:01:12;;;;;;;9.32;5.47;;;;;;;10.84;54.08;100934.22;4994246;28;20026;-68
2021/04/18 09:03:39;;;;;;;10.65;5.65;;;;;;;11.09;52.38;100920.50;4994267;28;20550;-66
2021/04/18 09:06:25;;;;;;;7.28;5.00;;;;;;;11.04;52.04;100928.88;4977214;28;20034;-70
2021/04/18 09:08:53;;;;;;;9.55;5.50;;;;;;;10.99;51.97;100937.25;5011200;28;20430;-68
2021/04/18 09:11:19;;;;;;;7.00;4.88;;;;;;;10.86;52.91;100934.06;5011412;28;20088;-68
2021/04/18 09:13:59;;;;;;;7.30;4.80;;;;;;;11.09;51.47;100939.84;4993712;28;20030;-68
2021/04/18 09:16:26;;;;;;;11.32;6.68;;;;;;;11.14;51.24;100940.25;5012565;28;20030;-68
2021/04/18 09:18:53;;;;;;;9.07;5.00;;;;;;;11.13;51.11;100933.28;5011527;28;20120;-68
2021/04/18 09:21:19;;;;;;;11.50;6.25;;;;;;;11.31;50.51;100940.47;4993697;28;20034;-68
2021/04/18 09:23:55;;;;;;;10.65;5.55;;;;;;;11.32;50.63;100940.31;4993734;28;20061;-68
2021/04/18 09:26:20;;;;;;;8.13;5.18;;;;;;;11.26;50.94;100940.91;5010906;28;20042;-68
2021/04/18 09:29:08;;;;;;;10.02;5.28;;;;;;;11.28;52.23;100938.94;5011408;28;20030;-68
2021/04/18 09:31:33;;;;;;;7.40;5.07;;;;;;;11.30;51.54;100936.13;5010849;28;20040;-68
2021/04/18 09:34:04;;;;;;;9.65;6.38;;;;;;;11.40;50.62;100934.28;5026632;28;20128;-68
2021/04/18 09:36:30;;;;;;;8.15;5.43;;;;;;;11.31;50.70;100935.16;5030493;28;20037;-68
2021/04/18 09:38:56;;;;;;;7.43;5.15;;;;;;;11.17;51.07;100932.00;5013306;28;20044;-68
2021/04/18 09:41:22;;;;;;;9.80;6.00;;;;;;;11.31;50.74;100937.81;5018084;28;20056;-68
2021/04/18 09:43:55;;;;;;;8.60;5.82;;;;;;;11.20;52.04;100934.38;5010954;28;20501;-68
2021/04/18 09:46:20;;;;;;;9.23;6.63;;;;;;;11.05;52.33;100941.09;5011379;28;20037;-68
2021/04/18 09:49:00;;;;;;;9.20;5.93;;;;;;;11.20;52.03;100937.03;5030784;28;20033;-69
2021/04/18 09:51:25;;;;;;;8.45;5.55;;;;;;;11.47;51.59;100940.66;5030786;28;20033;-68
2021/04/18 09:54:02;;;;;;;11.75;7.10;;;;;;;11.42;52.14;100937.63;5030924;28;20525;-68
2021/04/18 09:56:27;;;;;;;9.35;5.80;;;;;;;11.26;52.58;100935.59;5029644;28;20030;-68
2021/04/18 09:58:52;;;;;;;6.85;4.80;;;;;;;11.41;52.27;100930.66;5012435;28;20036;-68
2021/04/18 10:01:27;;;;;;;9.15;5.30;;;;;;;11.65;51.81;100941.50;5029811;28;20490;-68
2021/04/18 10:03:52;;;;;;;7.82;5.03;;;;;;;11.75;52.97;100937.97;5030615;28;20037;-68
2021/04/18 10:06:18;;;;;;;10.05;6.70;;;;;;;12.12;50.67;100927.28;5029890;28;20467;-69
2021/04/18 10:08:54;;;;;;;9.98;6.97;;;;;;;12.15;50.46;100932.28;5030057;28;20030;-68
2021/04/18 10:11:21;;;;;;;12.73;7.38;;;;;;;12.46;50.34;100929.22;5012134;28;20034;-68
2021/04/18 10:13:55;;;;;;;10.48;6.20;;;;;;;12.86;50.91;100931.31;5030510;28;20037;-68
2021/04/18 10:16:24;;;;;;;10.77;6.30;;;;;;;13.50;49.85;100926.50;5018159;28;20056;-68
2021/04/18 10:19:10;;;;;;;12.68;8.13;;;;;;;13.88;48.26;100918.97;5010163;28;20037;-68
2021/04/18 10:21:36;;;;;;;10.90;6.95;;;;;;;14.19;46.89;100926.31;5009985;28;20033;-69
2021/04/18 10:24:02;;;;;;;12.95;7.97;;;;;;;14.41;46.12;100914.16;5009755;28;20037;-69
2021/04/18 10:26:28;;;;;;;9.63;6.35;;;;;;;14.40;49.49;100920.50;5009880;28;20502;-69
2021/04/18 10:28:55;;;;;;;7.45;5.15;;;;;;;14.70;46.08;100918.97;5010763;28;20084;-69
2021/04/18 10:31:23;;;;;;;10.68;6.47;;;;;;;14.39;49.16;100911.66;5010167;28;20037;-68
2021/04/18 10:33:48;;;;;;;10.63;7.70;;;;;;;14.13;47.09;100911.00;5024347;28;20041;-69
2021/04/18 10:36:15;;;;;;;10.30;7.28;;;;;;;14.13;46.99;100911.00;5029081;28;20494;-68
2021/04/18 10:38:41;;;;;;;11.57;7.30;;;;;;;13.63;48.16;100907.44;5030143;28;20064;-69
2021/04/18 10:41:07;;;;;;;11.95;6.90;;;;;;;13.73;47.81;100900.19;5029983;28;20556;-69
2021/04/18 10:43:33;;;;;;;9.73;6.15;;;;;;;13.75;48.52;100903.50;5029777;28;20068;-69
2021/04/18 10:45:59;;;;;;;10.38;6.50;;;;;;;13.32;49.14;100902.72;5030216;28;20040;-68
2021/04/18 10:48:24;;;;;;;11.93;7.70;;;;;;;13.44;49.84;100902.41;5011753;28;20238;-69
2021/04/18 10:50:50;;;;;;;10.90;6.85;;;;;;;13.32;48.77;100896.56;5009517;28;20034;-69
2021/04/18 10:53:15;;;;;;;8.57;6.18;;;;;;;13.27;49.97;100909.44;4992317;28;20277;-69
2021/04/18 10:55:41;;;;;;;12.43;6.95;;;;;;;13.27;49.50;100899.69;5009984;28;20096;-69
2021/04/18 10:58:08;;;;;;;10.73;7.47;;;;;;;13.01;50.23;100899.72;5009579;28;20026;-69
2021/04/18 11:00:33;;;;;;;10.23;6.75;;;;;;;12.99;51.04;100901.72;5010000;28;20022;-68
2021/04/18 11:02:58;;;;;;;10.68;6.78;;;;;;;13.21;50.89;100892.34;5009790;28;20037;-68
2021/04/18 11:05:24;;;;;;;11.27;6.93;;;;;;;13.15;51.29;100891.16;5009948;28;20545;-68
2021/04/18 11:07:49;;;;;;;10.60;7.60;;;;;;;13.05;51.52;100889.63;5009813;28;20498;-68
2021/04/18 11:10:15;;;;;;;10.18;7.40;;;;;;;12.93;52.64;100891.72;4991886;28;20045;-68
2021/04/18 11:12:42;;;;;;;12.73;8.80;;;;;;;13.04;52.48;100894.09;5009856;28;20033;-68
2021/04/18 11:15:09;;;;;;;9.82;7.03;;;;;;;12.93;53.24;100889.88;5011068;28;20088;-68
2021/04/18 11:17:37;;;;;;;8.63;5.80;;;;;;;13.24;52.82;100889.38;5029370;28;20037;-68
2021/04/18 11:20:04;;;;;;;9.43;6.40;;;;;;;13.54;52.18;100884.53;5011094;28;20042;-69
2021/04/18 11:22:29;;;;;;;11.40;7.80;;;;;;;13.75;50.07;100884.91;5029308;28;20044;-68
2021/04/18 11:24:56;;;;;;;8.93;6.60;;;;;;;13.72;51.57;100884.38;5011778;28;20029;-68
2021/04/18 11:27:22;;;;;;;11.55;8.15;;;;;;;13.86;50.60;100883.75;5029647;28;20064;-68